MV Sea Wolf — WCW6738 — position and weather

sailwx.info

Track history (hours):
 
Tides and Currents Weather Stations Pressure Air Temp Water Temp Dewpoint Dewpoint Depression Visibility Wind Speed Wind Dir Waves Ship Positions

MV Sea Wolf

Owner: SEA WOLF MARINE TOWING & TRANSPORTATION, Bayonne, NJ. More information available from US FCC via Universal Licensing System and Coast Guard Vessel Documentation Center.

Last reported at 2016-Aug-29 12:34 UTC. Time now 2016-Aug-29 13:04 UTC.
Position N 40°41' W 074°05'.

Length 66 m; draft 10 m.

MMSI: 367002350.

Date/timePositionNaut miles runAvg speedWind from/ knotsBaromVisibWave heightAir tempDewpointWater temp
2016-Aug-29 12:34N 40°41' W 074°05'0 0.0
2016-Aug-29 11:33N 40°41' W 074°05'0 0.0
2016-Aug-29 10:33N 40°41' W 074°05'0 0.0
2016-Aug-29 09:33N 40°41' W 074°05'0 0.0
2016-Aug-29 08:33N 40°41' W 074°05'0 0.0
2016-Aug-29 07:33N 40°41' W 074°05'0 0.0
2016-Aug-29 06:33N 40°41' W 074°05'0 0.0
2016-Aug-29 05:33N 40°41' W 074°05'0 0.0
2016-Aug-29 04:33N 40°41' W 074°05'0 0.0
2016-Aug-29 03:33N 40°41' W 074°05'0 0.0
2016-Aug-29 02:33N 40°41' W 074°05'0 0.0
2016-Aug-29 01:33N 40°41' W 074°05'0 0.0
2016-Aug-29 00:33N 40°41' W 074°05'0 0.0
2016-Aug-28 23:33N 40°41' W 074°05'0 0.0
2016-Aug-28 22:33N 40°41' W 074°05'0 0.0
2016-Aug-28 21:33N 40°41' W 074°05'0 0.0
2016-Aug-28 20:33N 40°41' W 074°05'0 0.0
2016-Aug-28 19:33N 40°41' W 074°05'0 0.0
2016-Aug-28 18:33N 40°41' W 074°05'0 0.0
2016-Aug-28 17:33N 40°41' W 074°05'0 0.0
2016-Aug-28 16:33N 40°41' W 074°05'0 0.0
2016-Aug-28 15:33N 40°41' W 074°05'0 0.0
2016-Aug-28 14:33N 40°41' W 074°05'0 0.0
2016-Aug-28 13:33N 40°41' W 074°05'0 0.0
2016-Aug-28 12:33N 40°41' W 074°05'0 0.0
2016-Aug-28 11:33N 40°41' W 074°05'0 0.0
2016-Aug-28 10:33N 40°41' W 074°05'0 0.0
2016-Aug-28 09:33N 40°41' W 074°05'0 0.0
2016-Aug-28 08:33N 40°41' W 074°05'0 0.0
2016-Aug-28 07:33N 40°41' W 074°05'0 0.0
2016-Aug-28 06:33N 40°41' W 074°05'0 0.0
2016-Aug-28 05:33N 40°41' W 074°05'0 0.0
2016-Aug-28 04:34N 40°41' W 074°05'0 0.0
2016-Aug-28 03:33N 40°41' W 074°05'0 0.0
2016-Aug-28 02:33N 40°41' W 074°05'0 0.0
2016-Aug-28 01:33N 40°41' W 074°05'3 2.8
2016-Aug-28 00:34N 40°40' W 074°02'5 5.2
2016-Aug-27 23:34N 40°44' W 073°58'3 1.6
2016-Aug-27 21:33N 40°47' W 073°56'8 8.5
2016-Aug-27 20:33N 40°40' W 074°03'1 0.9
2016-Aug-27 19:33N 40°41' W 074°04'3 2.7
2016-Aug-27 18:33N 40°40' W 074°01'1 1.2
2016-Aug-27 17:34N 40°41' W 074°01'5 4.8
2016-Aug-27 16:33N 40°44' W 073°57'4 3.6
2016-Aug-27 15:33N 40°42' W 074°00'3 3.3
2016-Aug-27 14:33N 40°41' W 074°04'0 0.2
2016-Aug-27 13:33N 40°41' W 074°05'0 0.3
2016-Aug-27 12:33N 40°41' W 074°05'0 0.0
2016-Aug-27 11:33N 40°41' W 074°05'0 0.0
2016-Aug-27 10:33N 40°41' W 074°05'0 0.0
2016-Aug-27 09:33N 40°41' W 074°05'0 0.0
2016-Aug-27 08:33N 40°41' W 074°05'0 0.0
2016-Aug-27 07:33N 40°41' W 074°05'0 0.0
2016-Aug-27 06:33N 40°41' W 074°05'0 0.0
2016-Aug-27 04:33N 40°41' W 074°05'0 0.0
2016-Aug-27 03:33N 40°41' W 074°05'0 0.0
2016-Aug-27 02:33N 40°41' W 074°05'0 0.0
2016-Aug-27 01:33N 40°41' W 074°05'0 0.0
2016-Aug-27 00:34N 40°41' W 074°05'0 0.0
2016-Aug-26 23:33N 40°41' W 074°05'2 1.8
2016-Aug-26 22:33N 40°40' W 074°03'2 1.7
2016-Aug-26 21:33N 40°40' W 074°01'0 0.0
2016-Aug-26 20:33N 40°40' W 074°01'0 0.0
2016-Aug-26 19:34N 40°40' W 074°01'0 0.1
2016-Aug-26 18:33N 40°40' W 074°01'3 3.2
2016-Aug-26 17:33N 40°41' W 074°04'0 0.3
2016-Aug-26 16:33N 40°41' W 074°05'0 0.0
2016-Aug-26 15:33N 40°41' W 074°05'0 0.1
2016-Aug-26 14:34N 40°41' W 074°05'0 0.3
2016-Aug-26 13:34N 40°41' W 074°04'0 0.1
2016-Aug-26 12:33N 40°41' W 074°04'0 0.4
2016-Aug-26 11:33N 40°41' W 074°05'0 0.0
2016-Aug-26 10:33N 40°41' W 074°05'0 0.0
2016-Aug-26 09:33N 40°41' W 074°05'0 0.0
2016-Aug-26 08:33N 40°41' W 074°05'0 0.0
2016-Aug-26 07:34N 40°41' W 074°05'0 0.0
2016-Aug-26 06:33N 40°41' W 074°05'0 0.0
2016-Aug-26 04:33N 40°41' W 074°05'0 0.0
2016-Aug-26 03:33N 40°41' W 074°05'0 0.0
2016-Aug-26 02:33N 40°41' W 074°05'0 0.0
2016-Aug-26 01:33N 40°41' W 074°05'0 0.0
2016-Aug-26 00:33N 40°41' W 074°05'0 0.0
2016-Aug-25 23:33N 40°41' W 074°05'0 0.0
2016-Aug-25 22:33N 40°41' W 074°05'0 0.0
2016-Aug-25 21:33N 40°41' W 074°05'0 0.0
2016-Aug-25 20:33N 40°41' W 074°05'1 1.3
2016-Aug-25 19:33N 40°40' W 074°04'9 8.6
2016-Aug-25 18:33N 40°34' W 073°56'3 3.0
2016-Aug-25 17:33N 40°36' W 073°54'0 0.0
2016-Aug-25 16:33N 40°36' W 073°54'6 5.6
2016-Aug-25 15:33N 40°34' W 074°01'7 7.0
2016-Aug-25 14:33N 40°41' W 074°04'0 0.1
2016-Aug-25 13:33N 40°41' W 074°04'0 0.1
2016-Aug-25 12:33N 40°41' W 074°05'0 0.3
2016-Aug-25 11:33N 40°41' W 074°05'0 0.0
2016-Aug-25 10:33N 40°41' W 074°05'0 0.0
2016-Aug-25 09:33N 40°41' W 074°05'0 0.0
2016-Aug-25 08:33N 40°41' W 074°05'0 0.0
2016-Aug-25 07:33N 40°41' W 074°05'0 0.0
2016-Aug-25 06:33N 40°41' W 074°05'0 0.0
2016-Aug-25 04:33N 40°41' W 074°05'0 0.0
2016-Aug-25 03:33N 40°41' W 074°05'0 0.0
2016-Aug-25 02:33N 40°41' W 074°05'0 0.0
2016-Aug-25 01:33N 40°41' W 074°05'0 0.0
2016-Aug-25 00:33N 40°41' W 074°05'0 0.0
2016-Aug-24 23:33N 40°41' W 074°05'0 0.0
2016-Aug-24 22:33N 40°41' W 074°05'0 0.0
2016-Aug-24 21:33N 40°41' W 074°05'0 0.0
2016-Aug-24 20:33N 40°41' W 074°05'0 0.2
2016-Aug-24 19:33N 40°41' W 074°04'2 1.5
2016-Aug-24 18:33N 40°40' W 074°03'1 1.3
2016-Aug-24 17:33N 40°40' W 074°01'3 2.6
2016-Aug-24 16:33N 40°41' W 074°04'0 0.3
2016-Aug-24 15:33N 40°41' W 074°05'0 0.0
2016-Aug-24 14:33N 40°41' W 074°05'0 0.1
2016-Aug-24 13:33N 40°41' W 074°05'0 0.2
2016-Aug-24 12:32N 40°41' W 074°05'0 0.1
2016-Aug-24 11:33N 40°41' W 074°05'0 0.2
2016-Aug-24 10:34N 40°41' W 074°04'0 0.2
2016-Aug-24 09:33N 40°41' W 074°05'0 0.0
2016-Aug-24 08:33N 40°41' W 074°05'0 0.0
2016-Aug-24 07:33N 40°41' W 074°05'0 0.0
2016-Aug-24 06:33N 40°41' W 074°05'0 0.0
2016-Aug-24 04:33N 40°41' W 074°05'0 0.0
2016-Aug-24 03:33N 40°41' W 074°05'0 0.0
2016-Aug-24 02:33N 40°41' W 074°05'0 0.0
2016-Aug-24 01:33N 40°41' W 074°05'0 0.0
2016-Aug-24 00:33N 40°41' W 074°05'0 0.0
2016-Aug-23 23:33N 40°41' W 074°05'2 1.9
2016-Aug-23 22:33N 40°39' W 074°05'5 2.7
2016-Aug-23 20:33N 40°38' W 074°12'5 4.6
2016-Aug-23 19:33N 40°39' W 074°06'7 6.7
2016-Aug-23 18:33N 40°43' W 073°58'0 0.4
2016-Aug-23 17:33N 40°43' W 073°58'5 5.3
2016-Aug-23 16:33N 40°41' W 074°04'0 0.1
2016-Aug-23 15:33N 40°41' W 074°05'0 0.2
2016-Aug-23 14:33N 40°41' W 074°05'0 0.2
2016-Aug-23 13:33N 40°41' W 074°05'0 0.1
2016-Aug-23 12:33N 40°41' W 074°05'0 0.4
2016-Aug-23 11:33N 40°41' W 074°04'0 0.4
2016-Aug-23 10:33N 40°41' W 074°05'0 0.1
2016-Aug-23 09:33N 40°41' W 074°05'0 0.0
2016-Aug-23 08:33N 40°41' W 074°05'0 0.0
2016-Aug-23 07:33N 40°41' W 074°05'0 0.0
2016-Aug-23 06:33N 40°41' W 074°05'0 0.0
2016-Aug-23 05:33N 40°41' W 074°05'0 0.0
2016-Aug-23 04:33N 40°41' W 074°05'0 0.0
2016-Aug-23 03:33N 40°41' W 074°05'0 0.0
2016-Aug-23 02:33N 40°41' W 074°05'0 0.0
2016-Aug-23 01:33N 40°41' W 074°05'0 0.0
2016-Aug-23 00:33N 40°41' W 074°05'0 0.0
2016-Aug-22 23:33N 40°41' W 074°05'0 0.0
2016-Aug-22 22:33N 40°41' W 074°05'0 0.0
2016-Aug-22 21:33N 40°41' W 074°05'0 0.0
2016-Aug-22 20:33N 40°41' W 074°05'0 0.0
2016-Aug-22 19:33N 40°41' W 074°05'0 0.0
2016-Aug-22 18:33N 40°41' W 074°05'0 0.0
2016-Aug-22 17:33N 40°41' W 074°05'0 0.0
2016-Aug-22 16:33N 40°41' W 074°05'0 0.0
2016-Aug-22 15:33N 40°41' W 074°05'0 0.0
2016-Aug-22 14:33N 40°41' W 074°05'0 0.0
2016-Aug-22 13:33N 40°41' W 074°05'0 0.0
2016-Aug-22 12:33N 40°41' W 074°05'0 0.0
2016-Aug-22 11:33N 40°41' W 074°05'0 0.0
2016-Aug-22 10:33N 40°41' W 074°05'0 0.0
2016-Aug-22 09:33N 40°41' W 074°05'0 0.0
2016-Aug-22 08:33N 40°41' W 074°05'0 0.0
2016-Aug-22 07:33N 40°41' W 074°05'0 0.0
2016-Aug-22 06:33N 40°41' W 074°05'0 0.0
2016-Aug-22 05:33N 40°41' W 074°05'0 0.0
2016-Aug-22 04:33N 40°41' W 074°05'0 0.0
2016-Aug-22 03:33N 40°41' W 074°05'0 0.0
2016-Aug-22 02:33N 40°41' W 074°05'0 0.0
2016-Aug-22 01:33N 40°41' W 074°05'0 0.0
2016-Aug-22 00:33N 40°41' W 074°05'3 2.8
2016-Aug-21 23:33N 40°40' W 074°01'5 5.4
2016-Aug-21 22:33N 40°44' W 073°57'3 3.2
2016-Aug-21 21:33N 40°42' W 073°60'4 3.7
2016-Aug-21 20:32N 40°41' W 074°05'0 0.0
2016-Aug-21 19:33N 40°41' W 074°05'0 0.0
2016-Aug-21 18:33N 40°41' W 074°05'0 0.0
2016-Aug-21 17:33N 40°41' W 074°05'0 0.0
2016-Aug-21 16:33N 40°41' W 074°05'0 0.0
2016-Aug-21 15:33N 40°41' W 074°05'0 0.0
2016-Aug-21 14:33N 40°41' W 074°05'0 0.0
2016-Aug-21 13:33N 40°41' W 074°05'0 0.0
2016-Aug-21 12:33N 40°41' W 074°05'0 0.0
2016-Aug-21 11:32N 40°41' W 074°05'0 0.0
2016-Aug-21 10:33N 40°41' W 074°05'0 0.0
2016-Aug-21 09:33N 40°41' W 074°05'0 0.0
2016-Aug-21 08:33N 40°41' W 074°05'0 0.0
2016-Aug-21 07:33N 40°41' W 074°05'0 0.0
2016-Aug-21 06:33N 40°41' W 074°05'0 0.0
2016-Aug-21 05:33N 40°41' W 074°05'0 0.0
2016-Aug-21 04:33N 40°41' W 074°05'0 0.0
2016-Aug-21 03:33N 40°41' W 074°05'0 0.0
2016-Aug-21 02:33N 40°41' W 074°05'0 0.0
2016-Aug-21 01:34N 40°41' W 074°05'1 1.2
2016-Aug-21 00:33N 40°40' W 074°04'8 8.2
2016-Aug-20 23:33N 40°34' W 073°57'6 1.5
2016-Aug-20 19:33N 40°35' W 073°49'6 4.4
2016-Aug-20 18:14N 40°34' W 073°56'4 5.9
2016-Aug-20 17:33N 40°35' W 074°02'6 6.5
2016-Aug-20 16:33N 40°41' W 074°01'4 4.5
2016-Aug-20 15:33N 40°45' W 073°58'0 0.1
2016-Aug-20 14:33N 40°45' W 073°57'0 0.0
2016-Aug-20 13:33N 40°45' W 073°57'3 2.7
2016-Aug-20 12:33N 40°42' W 073°59'5 4.6
2016-Aug-20 11:33N 40°41' W 074°05'0 0.0
2016-Aug-20 10:33N 40°41' W 074°05'0 0.0
2016-Aug-20 09:33N 40°41' W 074°05'0 0.0
2016-Aug-20 08:33N 40°41' W 074°05'0 0.0
2016-Aug-20 07:34N 40°41' W 074°05'0 0.0
2016-Aug-20 06:33N 40°41' W 074°05'0 0.0
2016-Aug-20 05:33N 40°41' W 074°05'0 0.0
2016-Aug-20 04:33N 40°41' W 074°05'0 0.0
2016-Aug-20 03:33N 40°41' W 074°05'0 0.0
2016-Aug-20 02:33N 40°41' W 074°05'0 0.0
2016-Aug-20 01:33N 40°41' W 074°05'0 0.0
2016-Aug-20 00:33N 40°41' W 074°05'0 0.0
2016-Aug-19 23:33N 40°41' W 074°05'0 0.0
2016-Aug-19 22:33N 40°41' W 074°05'0 0.0
2016-Aug-19 21:33N 40°41' W 074°05'0 0.0
2016-Aug-19 20:33N 40°41' W 074°05'0 0.0
2016-Aug-19 19:33N 40°41' W 074°05'0 0.0
2016-Aug-19 18:33N 40°41' W 074°05'0 0.0
2016-Aug-19 17:33N 40°41' W 074°05'0 0.0
2016-Aug-19 16:33N 40°41' W 074°05'0 0.0
2016-Aug-19 15:34N 40°41' W 074°05'0 0.0
2016-Aug-19 14:33N 40°41' W 074°05'1 0.9
2016-Aug-19 13:33N 40°41' W 074°04'  
Track history (hours):
 
Tides and Currents Weather Stations Pressure Air Temp Water Temp Dewpoint Dewpoint Depression Visibility Wind Speed Wind Dir Waves Ship Positions

MV Sea Wolf

Owner: SEA WOLF MARINE TOWING & TRANSPORTATION, Bayonne, NJ. More information available from US FCC via Universal Licensing System and Coast Guard Vessel Documentation Center.

Last reported at 2016-Aug-29 12:34 UTC. Time now 2016-Aug-29 13:04 UTC.
Position N 40°41' W 074°05'.

Length 66 m; draft 10 m.

MMSI: 367002350.

Date/timePositionNaut miles runAvg speedWind from/ knotsBaromVisibWave heightAir tempDewpointWater temp
2016-Aug-29 12:34N 40°41' W 074°05'0 0.0
2016-Aug-29 11:33N 40°41' W 074°05'0 0.0
2016-Aug-29 10:33N 40°41' W 074°05'0 0.0
2016-Aug-29 09:33N 40°41' W 074°05'0 0.0
2016-Aug-29 08:33N 40°41' W 074°05'0 0.0
2016-Aug-29 07:33N 40°41' W 074°05'0 0.0
2016-Aug-29 06:33N 40°41' W 074°05'0 0.0
2016-Aug-29 05:33N 40°41' W 074°05'0 0.0
2016-Aug-29 04:33N 40°41' W 074°05'0 0.0
2016-Aug-29 03:33N 40°41' W 074°05'0 0.0
2016-Aug-29 02:33N 40°41' W 074°05'0 0.0
2016-Aug-29 01:33N 40°41' W 074°05'0 0.0
2016-Aug-29 00:33N 40°41' W 074°05'0 0.0
2016-Aug-28 23:33N 40°41' W 074°05'0 0.0
2016-Aug-28 22:33N 40°41' W 074°05'0 0.0
2016-Aug-28 21:33N 40°41' W 074°05'0 0.0
2016-Aug-28 20:33N 40°41' W 074°05'0 0.0
2016-Aug-28 19:33N 40°41' W 074°05'0 0.0
2016-Aug-28 18:33N 40°41' W 074°05'0 0.0
2016-Aug-28 17:33N 40°41' W 074°05'0 0.0
2016-Aug-28 16:33N 40°41' W 074°05'0 0.0
2016-Aug-28 15:33N 40°41' W 074°05'0 0.0
2016-Aug-28 14:33N 40°41' W 074°05'0 0.0
2016-Aug-28 13:33N 40°41' W 074°05'0 0.0
2016-Aug-28 12:33N 40°41' W 074°05'0 0.0
2016-Aug-28 11:33N 40°41' W 074°05'0 0.0
2016-Aug-28 10:33N 40°41' W 074°05'0 0.0
2016-Aug-28 09:33N 40°41' W 074°05'0 0.0
2016-Aug-28 08:33N 40°41' W 074°05'0 0.0
2016-Aug-28 07:33N 40°41' W 074°05'0 0.0
2016-Aug-28 06:33N 40°41' W 074°05'0 0.0
2016-Aug-28 05:33N 40°41' W 074°05'0 0.0
2016-Aug-28 04:34N 40°41' W 074°05'0 0.0
2016-Aug-28 03:33N 40°41' W 074°05'0 0.0
2016-Aug-28 02:33N 40°41' W 074°05'0 0.0
2016-Aug-28 01:33N 40°41' W 074°05'3 2.8
2016-Aug-28 00:34N 40°40' W 074°02'5 5.2
2016-Aug-27 23:34N 40°44' W 073°58'3 1.6
2016-Aug-27 21:33N 40°47' W 073°56'8 8.5
2016-Aug-27 20:33N 40°40' W 074°03'1 0.9
2016-Aug-27 19:33N 40°41' W 074°04'3 2.7
2016-Aug-27 18:33N 40°40' W 074°01'1 1.2
2016-Aug-27 17:34N 40°41' W 074°01'5 4.8
2016-Aug-27 16:33N 40°44' W 073°57'4 3.6
2016-Aug-27 15:33N 40°42' W 074°00'3 3.3
2016-Aug-27 14:33N 40°41' W 074°04'0 0.2
2016-Aug-27 13:33N 40°41' W 074°05'0 0.3
2016-Aug-27 12:33N 40°41' W 074°05'0 0.0
2016-Aug-27 11:33N 40°41' W 074°05'0 0.0
2016-Aug-27 10:33N 40°41' W 074°05'0 0.0
2016-Aug-27 09:33N 40°41' W 074°05'0 0.0
2016-Aug-27 08:33N 40°41' W 074°05'0 0.0
2016-Aug-27 07:33N 40°41' W 074°05'0 0.0
2016-Aug-27 06:33N 40°41' W 074°05'0 0.0
2016-Aug-27 04:33N 40°41' W 074°05'0 0.0
2016-Aug-27 03:33N 40°41' W 074°05'0 0.0
2016-Aug-27 02:33N 40°41' W 074°05'0 0.0
2016-Aug-27 01:33N 40°41' W 074°05'0 0.0
2016-Aug-27 00:34N 40°41' W 074°05'0 0.0
2016-Aug-26 23:33N 40°41' W 074°05'2 1.8
2016-Aug-26 22:33N 40°40' W 074°03'2 1.7
2016-Aug-26 21:33N 40°40' W 074°01'0 0.0
2016-Aug-26 20:33N 40°40' W 074°01'0 0.0
2016-Aug-26 19:34N 40°40' W 074°01'0 0.1
2016-Aug-26 18:33N 40°40' W 074°01'3 3.2
2016-Aug-26 17:33N 40°41' W 074°04'0 0.3
2016-Aug-26 16:33N 40°41' W 074°05'0 0.0
2016-Aug-26 15:33N 40°41' W 074°05'0 0.1
2016-Aug-26 14:34N 40°41' W 074°05'0 0.3
2016-Aug-26 13:34N 40°41' W 074°04'0 0.1
2016-Aug-26 12:33N 40°41' W 074°04'0 0.4
2016-Aug-26 11:33N 40°41' W 074°05'0 0.0
2016-Aug-26 10:33N 40°41' W 074°05'0 0.0
2016-Aug-26 09:33N 40°41' W 074°05'0 0.0
2016-Aug-26 08:33N 40°41' W 074°05'0 0.0
2016-Aug-26 07:34N 40°41' W 074°05'0 0.0
2016-Aug-26 06:33N 40°41' W 074°05'0 0.0
2016-Aug-26 04:33N 40°41' W 074°05'0 0.0
2016-Aug-26 03:33N 40°41' W 074°05'0 0.0
2016-Aug-26 02:33N 40°41' W 074°05'0 0.0
2016-Aug-26 01:33N 40°41' W 074°05'0 0.0
2016-Aug-26 00:33N 40°41' W 074°05'0 0.0
2016-Aug-25 23:33N 40°41' W 074°05'0 0.0
2016-Aug-25 22:33N 40°41' W 074°05'0 0.0
2016-Aug-25 21:33N 40°41' W 074°05'0 0.0
2016-Aug-25 20:33N 40°41' W 074°05'1 1.3
2016-Aug-25 19:33N 40°40' W 074°04'9 8.6
2016-Aug-25 18:33N 40°34' W 073°56'3 3.0
2016-Aug-25 17:33N 40°36' W 073°54'0 0.0
2016-Aug-25 16:33N 40°36' W 073°54'6 5.6
2016-Aug-25 15:33N 40°34' W 074°01'7 7.0
2016-Aug-25 14:33N 40°41' W 074°04'0 0.1
2016-Aug-25 13:33N 40°41' W 074°04'0 0.1
2016-Aug-25 12:33N 40°41' W 074°05'0 0.3
2016-Aug-25 11:33N 40°41' W 074°05'0 0.0
2016-Aug-25 10:33N 40°41' W 074°05'0 0.0
2016-Aug-25 09:33N 40°41' W 074°05'0 0.0
2016-Aug-25 08:33N 40°41' W 074°05'0 0.0
2016-Aug-25 07:33N 40°41' W 074°05'0 0.0
2016-Aug-25 06:33N 40°41' W 074°05'0 0.0
2016-Aug-25 04:33N 40°41' W 074°05'0 0.0
2016-Aug-25 03:33N 40°41' W 074°05'0 0.0
2016-Aug-25 02:33N 40°41' W 074°05'0 0.0
2016-Aug-25 01:33N 40°41' W 074°05'0 0.0
2016-Aug-25 00:33N 40°41' W 074°05'0 0.0
2016-Aug-24 23:33N 40°41' W 074°05'0 0.0
2016-Aug-24 22:33N 40°41' W 074°05'0 0.0
2016-Aug-24 21:33N 40°41' W 074°05'0 0.0
2016-Aug-24 20:33N 40°41' W 074°05'0 0.2
2016-Aug-24 19:33N 40°41' W 074°04'2 1.5
2016-Aug-24 18:33N 40°40' W 074°03'1 1.3
2016-Aug-24 17:33N 40°40' W 074°01'3 2.6
2016-Aug-24 16:33N 40°41' W 074°04'0 0.3
2016-Aug-24 15:33N 40°41' W 074°05'0 0.0
2016-Aug-24 14:33N 40°41' W 074°05'0 0.1
2016-Aug-24 13:33N 40°41' W 074°05'0 0.2
2016-Aug-24 12:32N 40°41' W 074°05'0 0.1
2016-Aug-24 11:33N 40°41' W 074°05'0 0.2
2016-Aug-24 10:34N 40°41' W 074°04'0 0.2
2016-Aug-24 09:33N 40°41' W 074°05'0 0.0
2016-Aug-24 08:33N 40°41' W 074°05'0 0.0
2016-Aug-24 07:33N 40°41' W 074°05'0 0.0
2016-Aug-24 06:33N 40°41' W 074°05'0 0.0
2016-Aug-24 04:33N 40°41' W 074°05'0 0.0
2016-Aug-24 03:33N 40°41' W 074°05'0 0.0
2016-Aug-24 02:33N 40°41' W 074°05'0 0.0
2016-Aug-24 01:33N 40°41' W 074°05'0 0.0
2016-Aug-24 00:33N 40°41' W 074°05'0 0.0
2016-Aug-23 23:33N 40°41' W 074°05'2 1.9
2016-Aug-23 22:33N 40°39' W 074°05'5 2.7
2016-Aug-23 20:33N 40°38' W 074°12'5 4.6
2016-Aug-23 19:33N 40°39' W 074°06'7 6.7
2016-Aug-23 18:33N 40°43' W 073°58'0 0.4
2016-Aug-23 17:33N 40°43' W 073°58'5 5.3
2016-Aug-23 16:33N 40°41' W 074°04'0 0.1
2016-Aug-23 15:33N 40°41' W 074°05'0 0.2
2016-Aug-23 14:33N 40°41' W 074°05'0 0.2
2016-Aug-23 13:33N 40°41' W 074°05'0 0.1
2016-Aug-23 12:33N 40°41' W 074°05'0 0.4
2016-Aug-23 11:33N 40°41' W 074°04'0 0.4
2016-Aug-23 10:33N 40°41' W 074°05'0 0.1
2016-Aug-23 09:33N 40°41' W 074°05'0 0.0
2016-Aug-23 08:33N 40°41' W 074°05'0 0.0
2016-Aug-23 07:33N 40°41' W 074°05'0 0.0
2016-Aug-23 06:33N 40°41' W 074°05'0 0.0
2016-Aug-23 05:33N 40°41' W 074°05'0 0.0
2016-Aug-23 04:33N 40°41' W 074°05'0 0.0
2016-Aug-23 03:33N 40°41' W 074°05'0 0.0
2016-Aug-23 02:33N 40°41' W 074°05'0 0.0
2016-Aug-23 01:33N 40°41' W 074°05'0 0.0
2016-Aug-23 00:33N 40°41' W 074°05'0 0.0
2016-Aug-22 23:33N 40°41' W 074°05'0 0.0
2016-Aug-22 22:33N 40°41' W 074°05'0 0.0
2016-Aug-22 21:33N 40°41' W 074°05'0 0.0
2016-Aug-22 20:33N 40°41' W 074°05'0 0.0
2016-Aug-22 19:33N 40°41' W 074°05'0 0.0
2016-Aug-22 18:33N 40°41' W 074°05'0 0.0
2016-Aug-22 17:33N 40°41' W 074°05'0 0.0
2016-Aug-22 16:33N 40°41' W 074°05'0 0.0
2016-Aug-22 15:33N 40°41' W 074°05'0 0.0
2016-Aug-22 14:33N 40°41' W 074°05'0 0.0
2016-Aug-22 13:33N 40°41' W 074°05'0 0.0
2016-Aug-22 12:33N 40°41' W 074°05'0 0.0
2016-Aug-22 11:33N 40°41' W 074°05'0 0.0
2016-Aug-22 10:33N 40°41' W 074°05'0 0.0
2016-Aug-22 09:33N 40°41' W 074°05'0 0.0
2016-Aug-22 08:33N 40°41' W 074°05'0 0.0
2016-Aug-22 07:33N 40°41' W 074°05'0 0.0
2016-Aug-22 06:33N 40°41' W 074°05'0 0.0
2016-Aug-22 05:33N 40°41' W 074°05'0 0.0
2016-Aug-22 04:33N 40°41' W 074°05'0 0.0
2016-Aug-22 03:33N 40°41' W 074°05'0 0.0
2016-Aug-22 02:33N 40°41' W 074°05'0 0.0
2016-Aug-22 01:33N 40°41' W 074°05'0 0.0
2016-Aug-22 00:33N 40°41' W 074°05'3 2.8
2016-Aug-21 23:33N 40°40' W 074°01'5 5.4
2016-Aug-21 22:33N 40°44' W 073°57'3 3.2
2016-Aug-21 21:33N 40°42' W 073°60'4 3.7
2016-Aug-21 20:32N 40°41' W 074°05'0 0.0
2016-Aug-21 19:33N 40°41' W 074°05'0 0.0
2016-Aug-21 18:33N 40°41' W 074°05'0 0.0
2016-Aug-21 17:33N 40°41' W 074°05'0 0.0
2016-Aug-21 16:33N 40°41' W 074°05'0 0.0
2016-Aug-21 15:33N 40°41' W 074°05'0 0.0
2016-Aug-21 14:33N 40°41' W 074°05'0 0.0
2016-Aug-21 13:33N 40°41' W 074°05'0 0.0
2016-Aug-21 12:33N 40°41' W 074°05'0 0.0
2016-Aug-21 11:32N 40°41' W 074°05'0 0.0
2016-Aug-21 10:33N 40°41' W 074°05'0 0.0
2016-Aug-21 09:33N 40°41' W 074°05'0 0.0
2016-Aug-21 08:33N 40°41' W 074°05'0 0.0
2016-Aug-21 07:33N 40°41' W 074°05'0 0.0
2016-Aug-21 06:33N 40°41' W 074°05'0 0.0
2016-Aug-21 05:33N 40°41' W 074°05'0 0.0
2016-Aug-21 04:33N 40°41' W 074°05'0 0.0
2016-Aug-21 03:33N 40°41' W 074°05'0 0.0
2016-Aug-21 02:33N 40°41' W 074°05'0 0.0
2016-Aug-21 01:34N 40°41' W 074°05'1 1.2
2016-Aug-21 00:33N 40°40' W 074°04'8 8.2
2016-Aug-20 23:33N 40°34' W 073°57'6 1.5
2016-Aug-20 19:33N 40°35' W 073°49'6 4.4
2016-Aug-20 18:14N 40°34' W 073°56'4 5.9
2016-Aug-20 17:33N 40°35' W 074°02'6 6.5
2016-Aug-20 16:33N 40°41' W 074°01'4 4.5
2016-Aug-20 15:33N 40°45' W 073°58'0 0.1
2016-Aug-20 14:33N 40°45' W 073°57'0 0.0
2016-Aug-20 13:33N 40°45' W 073°57'3 2.7
2016-Aug-20 12:33N 40°42' W 073°59'5 4.6
2016-Aug-20 11:33N 40°41' W 074°05'0 0.0
2016-Aug-20 10:33N 40°41' W 074°05'0 0.0
2016-Aug-20 09:33N 40°41' W 074°05'0 0.0
2016-Aug-20 08:33N 40°41' W 074°05'0 0.0
2016-Aug-20 07:34N 40°41' W 074°05'0 0.0
2016-Aug-20 06:33N 40°41' W 074°05'0 0.0
2016-Aug-20 05:33N 40°41' W 074°05'0 0.0
2016-Aug-20 04:33N 40°41' W 074°05'0 0.0
2016-Aug-20 03:33N 40°41' W 074°05'0 0.0
2016-Aug-20 02:33N 40°41' W 074°05'0 0.0
2016-Aug-20 01:33N 40°41' W 074°05'0 0.0
2016-Aug-20 00:33N 40°41' W 074°05'0 0.0
2016-Aug-19 23:33N 40°41' W 074°05'0 0.0
2016-Aug-19 22:33N 40°41' W 074°05'0 0.0
2016-Aug-19 21:33N 40°41' W 074°05'0 0.0
2016-Aug-19 20:33N 40°41' W 074°05'0 0.0
2016-Aug-19 19:33N 40°41' W 074°05'0 0.0
2016-Aug-19 18:33N 40°41' W 074°05'0 0.0
2016-Aug-19 17:33N 40°41' W 074°05'0 0.0
2016-Aug-19 16:33N 40°41' W 074°05'0 0.0
2016-Aug-19 15:34N 40°41' W 074°05'0 0.0
2016-Aug-19 14:33N 40°41' W 074°05'1 0.9
2016-Aug-19 13:33N 40°41' W 074°04'  

Dump ship's entire track history